createdAt,value
2022-12-01T00:00:27.837Z,67.03
2022-12-01T00:01:50.801Z,67.12
2022-12-01T00:02:54.241Z,67.11
2022-12-01T00:03:57.185Z,67.13
2022-12-01T00:05:00.081Z,67.11
2022-12-01T00:06:18.250Z,67.09
2022-12-01T00:07:21.127Z,67.10
2022-12-01T00:08:24.359Z,67.08
2022-12-01T00:09:46.155Z,67.07
2022-12-01T00:10:49.332Z,67.16
2022-12-01T00:11:52.309Z,67.15
2022-12-01T00:12:57.193Z,67.16
2022-12-01T00:14:00.229Z,67.11
2022-12-01T00:15:03.227Z,67.14
2022-12-01T00:16:14.431Z,67.21
2022-12-01T00:17:17.289Z,67.31
2022-12-01T00:18:20.155Z,67.24
2022-12-01T00:19:27.464Z,67.27
2022-12-01T00:20:30.417Z,67.23
2022-12-01T00:21:33.246Z,67.20
2022-12-01T00:22:36.110Z,67.28
2022-12-01T00:23:38.941Z,67.34
2022-12-01T00:24:42.087Z,67.39
2022-12-01T00:25:44.970Z,67.22
2022-12-01T00:26:47.808Z,67.20
2022-12-01T00:27:52.612Z,67.15
2022-12-01T00:28:58.246Z,67.08
2022-12-01T00:30:01.796Z,67.00
2022-12-01T00:31:12.486Z,66.95
2022-12-01T00:32:15.539Z,66.90
2022-12-01T00:33:18.482Z,66.98
2022-12-01T00:34:24.332Z,66.98
2022-12-01T00:35:27.453Z,66.94
2022-12-01T00:36:30.342Z,66.92
2022-12-01T00:37:35.160Z,66.99
2022-12-01T00:38:38.290Z,66.93
2022-12-01T00:39:41.180Z,66.84
2022-12-01T00:40:44.408Z,66.82
2022-12-01T00:41:47.319Z,66.86
2022-12-01T00:42:51.172Z,66.81
2022-12-01T00:43:54.046Z,66.60
2022-12-01T00:44:57.151Z,66.58
2022-12-01T00:46:00.312Z,66.50
2022-12-01T00:47:03.304Z,66.56
2022-12-01T00:48:06.258Z,66.59
2022-12-01T00:49:12.876Z,66.68
2022-12-01T00:50:17.968Z,66.74
2022-12-01T00:51:20.965Z,66.70
2022-12-01T00:52:23.964Z,66.71
2022-12-01T00:53:26.812Z,66.72
2022-12-01T00:54:32.199Z,66.66
2022-12-01T00:55:35.492Z,66.44
2022-12-01T00:56:38.703Z,66.39
2022-12-01T00:57:41.657Z,66.44
2022-12-01T00:58:44.585Z,66.43
2022-12-01T00:59:47.667Z,66.43
2022-12-01T01:01:01.715Z,66.46
2022-12-01T01:02:08.798Z,66.49
2022-12-01T01:03:12.019Z,66.52
2022-12-01T01:04:15.399Z,66.50
2022-12-01T01:05:18.365Z,66.50
2022-12-01T01:06:21.214Z,66.53
2022-12-01T01:07:24.412Z,66.45
2022-12-01T01:08:27.340Z,66.41
2022-12-01T01:09:32.045Z,66.39
2022-12-01T01:10:41.883Z,66.42
2022-12-01T01:11:44.748Z,66.46
2022-12-01T01:12:47.821Z,66.47
2022-12-01T01:13:50.737Z,66.16
2022-12-01T01:14:53.710Z,66.18
2022-12-01T01:16:05.688Z,66.18
2022-12-01T01:17:08.648Z,66.23
2022-12-01T01:18:12.544Z,66.22
2022-12-01T01:19:16.762Z,66.17
2022-12-01T01:20:19.618Z,66.16
2022-12-01T01:21:26.896Z,66.15
2022-12-01T01:22:29.830Z,66.18
2022-12-01T01:23:33.323Z,66.22
2022-12-01T01:24:36.278Z,66.33
2022-12-01T01:25:39.267Z,66.35
2022-12-01T01:26:42.218Z,66.26
2022-12-01T01:27:45.063Z,66.23
2022-12-01T01:28:49.444Z,66.18
2022-12-01T01:29:52.320Z,66.13
2022-12-01T01:30:55.254Z,66.15
2022-12-01T01:31:58.375Z,66.12
2022-12-01T01:33:01.330Z,66.11
2022-12-01T01:34:04.853Z,66.05
2022-12-01T01:35:08.345Z,66.10
2022-12-01T01:36:11.862Z,66.02
2022-12-01T01:37:14.864Z,65.99
2022-12-01T01:38:18.218Z,65.99
2022-12-01T01:39:21.324Z,65.97
2022-12-01T01:40:24.321Z,65.92
2022-12-01T01:41:27.584Z,65.94
2022-12-01T01:42:30.460Z,65.99
2022-12-01T01:43:55.001Z,66.07
2022-12-01T01:44:59.142Z,65.99
2022-12-01T01:46:02.086Z,65.96
2022-12-01T01:47:05.129Z,65.88
2022-12-01T01:48:09.559Z,65.83
2022-12-01T01:49:14.829Z,65.77
2022-12-01T01:50:21.789Z,65.77
2022-12-01T01:51:33.586Z,65.68
2022-12-01T01:52:48.262Z,65.65
2022-12-01T01:53:56.123Z,65.51
2022-12-01T01:55:00.169Z,65.29
2022-12-01T01:56:04.720Z,65.33
2022-12-01T01:57:10.769Z,65.32
2022-12-01T01:58:14.054Z,65.38
2022-12-01T01:59:21.354Z,65.53
2022-12-01T02:00:25.616Z,65.57
2022-12-01T02:01:29.473Z,65.74
2022-12-01T02:02:33.319Z,65.86
2022-12-01T02:03:39.861Z,65.77
2022-12-01T02:04:47.709Z,65.47
2022-12-01T02:05:50.897Z,65.26
2022-12-01T02:06:55.562Z,65.27
2022-12-01T02:08:00.263Z,65.43
2022-12-01T02:09:03.486Z,65.47
2022-12-01T02:10:09.628Z,65.51
2022-12-01T02:11:33.926Z,65.56
2022-12-01T02:12:52.143Z,65.63
2022-12-01T02:14:14.080Z,65.69
2022-12-01T02:15:35.938Z,65.61
2022-12-01T02:16:56.247Z,65.70
2022-12-01T02:18:19.822Z,65.74
2022-12-01T02:19:54.316Z,65.79
2022-12-01T02:21:03.606Z,65.71
2022-12-01T02:22:28.108Z,65.67
2022-12-01T02:24:07.995Z,65.68
2022-12-01T02:25:22.970Z,65.44
2022-12-01T02:27:03.685Z,65.60
2022-12-01T02:28:35.448Z,65.68
2022-12-01T02:29:57.162Z,65.73
2022-12-01T02:32:51.119Z,65.88
2022-12-01T02:33:59.137Z,65.85
2022-12-01T02:35:20.898Z,65.60
2022-12-01T02:36:37.343Z,65.22
2022-12-01T02:37:53.823Z,65.17
2022-12-01T02:39:10.969Z,65.50
2022-12-01T02:40:37.834Z,65.51
2022-12-01T02:41:52.589Z,65.40
2022-12-01T02:43:05.401Z,65.69
2022-12-01T02:44:34.379Z,65.83
2022-12-01T02:46:16.356Z,65.39
2022-12-01T02:47:19.865Z,65.29
2022-12-01T02:48:28.850Z,65.05
2022-12-01T02:49:39.253Z,65.06
2022-12-01T02:50:43.043Z,64.87
2022-12-01T02:51:48.716Z,64.89
2022-12-01T02:52:53.835Z,64.98
2022-12-01T02:54:02.800Z,64.62
2022-12-01T02:55:06.337Z,64.58
2022-12-01T02:56:14.689Z,64.67
2022-12-01T02:57:17.630Z,64.49
2022-12-01T02:58:21.647Z,64.54
2022-12-01T02:59:25.024Z,63.95
2022-12-01T03:00:30.583Z,63.94
2022-12-01T03:01:39.759Z,63.81
2022-12-01T03:03:05.536Z,63.86
2022-12-01T03:04:39.229Z,63.40
2022-12-01T03:05:49.503Z,63.55
2022-12-01T03:07:11.010Z,63.57
2022-12-01T03:08:32.643Z,63.87
2022-12-01T03:09:49.057Z,64.16
2022-12-01T03:10:55.214Z,64.19
2022-12-01T03:12:06.901Z,64.20
2022-12-01T03:13:41.330Z,64.18
2022-12-01T03:15:15.357Z,64.19
2022-12-01T03:16:29.152Z,64.13
2022-12-01T03:17:42.523Z,64.25
2022-12-01T03:18:55.671Z,64.32
2022-12-01T03:20:20.726Z,63.98
2022-12-01T03:21:32.502Z,63.99
2022-12-01T03:22:41.679Z,63.80
2022-12-01T03:23:50.408Z,63.96
2022-12-01T03:24:55.845Z,63.63
2022-12-01T03:26:01.908Z,63.78
2022-12-01T03:27:06.215Z,63.85
2022-12-01T03:28:21.098Z,64.01
2022-12-01T03:29:31.354Z,63.97
2022-12-01T03:30:36.657Z,63.94
2022-12-01T03:31:45.802Z,63.67
2022-12-01T03:32:57.593Z,63.69
2022-12-01T03:34:11.126Z,63.67
2022-12-01T03:35:20.585Z,63.86
2022-12-01T03:36:54.952Z,63.97
2022-12-01T03:38:05.189Z,64.18
2022-12-01T03:39:14.960Z,64.27
2022-12-01T03:40:22.573Z,64.37
2022-12-01T03:41:31.807Z,64.34
2022-12-01T03:42:41.656Z,64.44
2022-12-01T03:43:51.649Z,64.49
2022-12-01T03:44:58.447Z,64.48
2022-12-01T03:46:09.176Z,64.54
2022-12-01T03:47:23.697Z,64.50
2022-12-01T03:48:27.667Z,64.52
2022-12-01T03:49:31.755Z,64.58
2022-12-01T03:50:43.968Z,64.54
2022-12-01T03:51:56.065Z,64.53
2022-12-01T03:53:31.762Z,64.61
2022-12-01T03:54:46.638Z,64.43
2022-12-01T03:55:57.181Z,64.49
2022-12-01T03:57:03.333Z,64.18
2022-12-01T03:58:11.381Z,64.05
2022-12-01T03:59:16.982Z,63.98
2022-12-01T04:00:20.550Z,63.79
2022-12-01T04:01:23.983Z,63.80
2022-12-01T04:02:28.926Z,63.83
2022-12-01T04:03:32.085Z,63.79
2022-12-01T04:04:35.133Z,63.69
2022-12-01T04:05:38.115Z,63.67
2022-12-01T04:06:43.312Z,63.78
2022-12-01T04:07:46.254Z,63.60
2022-12-01T04:08:49.169Z,63.52
2022-12-01T04:09:52.333Z,63.69
2022-12-01T04:10:55.301Z,63.94
2022-12-01T04:12:16.569Z,63.88
2022-12-01T04:13:25.825Z,63.99
2022-12-01T04:14:30.081Z,64.31
2022-12-01T04:15:33.046Z,64.10
2022-12-01T04:16:36.213Z,63.96
2022-12-01T04:17:40.526Z,64.05
2022-12-01T04:18:43.473Z,63.92
2022-12-01T04:19:46.616Z,63.62
2022-12-01T04:20:50.624Z,63.63
2022-12-01T04:21:53.582Z,63.67
2022-12-01T04:22:56.532Z,63.63
2022-12-01T04:24:02.081Z,63.71
2022-12-01T04:25:06.597Z,63.62
2022-12-01T04:26:15.448Z,63.83
2022-12-01T04:27:19.819Z,64.05
2022-12-01T04:28:22.722Z,64.09
2022-12-01T04:29:25.636Z,64.00
2022-12-01T04:30:28.542Z,63.82
2022-12-01T04:31:31.735Z,63.83
2022-12-01T04:32:42.934Z,63.78
2022-12-01T04:33:45.936Z,63.78
2022-12-01T04:34:48.817Z,63.94
2022-12-01T04:36:01.322Z,63.85
2022-12-01T04:37:05.985Z,63.96
2022-12-01T04:38:09.027Z,64.04
2022-12-01T04:39:11.874Z,64.12
2022-12-01T04:40:14.797Z,64.13
2022-12-01T04:41:17.757Z,64.15
2022-12-01T04:42:20.859Z,64.12
2022-12-01T04:43:23.899Z,64.19
2022-12-01T04:44:31.459Z,63.94
2022-12-01T04:45:38.215Z,63.99
2022-12-01T04:46:41.585Z,64.10
2022-12-01T04:47:44.729Z,64.13
2022-12-01T04:48:48.140Z,63.99
2022-12-01T04:49:51.987Z,63.97
2022-12-01T04:50:55.236Z,63.99
2022-12-01T04:51:58.638Z,63.90
2022-12-01T04:53:01.754Z,63.94
2022-12-01T04:54:05.867Z,63.81
2022-12-01T04:55:09.302Z,63.68
2022-12-01T04:56:12.397Z,63.71
2022-12-01T04:57:15.563Z,63.79
2022-12-01T04:58:18.485Z,63.77
2022-12-01T04:59:21.677Z,63.66
2022-12-01T05:00:24.652Z,63.63
2022-12-01T05:01:28.145Z,63.60
2022-12-01T05:02:31.115Z,63.60
2022-12-01T05:03:42.518Z,63.57
2022-12-01T05:04:48.090Z,63.53
2022-12-01T05:06:01.222Z,63.74
2022-12-01T05:07:04.288Z,63.77
2022-12-01T05:08:07.316Z,63.65
2022-12-01T05:09:17.408Z,63.63
2022-12-01T05:10:21.087Z,63.62
2022-12-01T05:11:24.946Z,63.69
2022-12-01T05:12:27.873Z,63.74
2022-12-01T05:13:30.944Z,63.74
2022-12-01T05:14:33.907Z,63.73
2022-12-01T05:15:36.873Z,63.76
2022-12-01T05:16:39.874Z,63.73
2022-12-01T05:17:42.945Z,63.64
2022-12-01T05:19:20.214Z,63.65
2022-12-01T05:20:44.358Z,63.76
2022-12-01T05:21:49.760Z,63.84
2022-12-01T05:23:10.865Z,63.95
2022-12-01T05:24:16.190Z,63.88
2022-12-01T05:25:19.341Z,63.87
2022-12-01T05:26:22.282Z,63.78
2022-12-01T05:27:25.362Z,63.77
2022-12-01T05:28:28.901Z,63.83
2022-12-01T05:29:33.078Z,63.82
2022-12-01T05:30:36.233Z,63.80
2022-12-01T05:31:41.015Z,63.86
2022-12-01T05:32:44.494Z,63.77
2022-12-01T05:33:47.444Z,63.91
2022-12-01T05:34:50.297Z,63.82
2022-12-01T05:35:53.694Z,63.85
2022-12-01T05:36:56.629Z,63.82
2022-12-01T05:38:04.538Z,63.82
2022-12-01T05:39:10.405Z,63.69
2022-12-01T05:40:13.458Z,63.76
2022-12-01T05:41:16.738Z,63.83
2022-12-01T05:42:20.024Z,63.93
2022-12-01T05:43:28.620Z,63.68
2022-12-01T05:44:32.240Z,63.81
2022-12-01T05:45:35.695Z,63.84
2022-12-01T05:46:38.805Z,63.84
2022-12-01T05:47:41.742Z,63.93
2022-12-01T05:48:44.953Z,64.10
2022-12-01T05:49:48.066Z,64.21
2022-12-01T05:50:51.336Z,64.29
2022-12-01T05:51:54.282Z,64.28
2022-12-01T05:52:57.311Z,64.26
2022-12-01T05:54:00.848Z,64.28
2022-12-01T05:55:05.540Z,64.26
2022-12-01T05:56:10.169Z,64.30
2022-12-01T05:57:13.266Z,64.37
2022-12-01T05:58:16.399Z,64.41
2022-12-01T05:59:19.417Z,64.29
2022-12-01T06:00:22.505Z,64.21
2022-12-01T06:01:25.473Z,64.20
2022-12-01T06:02:28.410Z,64.24
2022-12-01T06:03:31.547Z,64.28
2022-12-01T06:04:34.737Z,64.34
2022-12-01T06:05:37.689Z,64.46
2022-12-01T06:06:40.573Z,64.49
2022-12-01T06:07:43.720Z,64.53
2022-12-01T06:08:46.741Z,64.58
2022-12-01T06:09:50.057Z,64.52
2022-12-01T06:10:53.194Z,64.43
2022-12-01T06:11:56.171Z,64.45
2022-12-01T06:12:59.027Z,64.52
2022-12-01T06:14:02.162Z,64.55
2022-12-01T06:15:07.195Z,64.58
2022-12-01T06:16:10.060Z,64.61
2022-12-01T06:17:12.980Z,64.56
2022-12-01T06:18:15.992Z,64.56
2022-12-01T06:19:18.996Z,64.64
2022-12-01T06:20:23.433Z,64.53
2022-12-01T06:21:26.430Z,64.56
2022-12-01T06:22:29.453Z,64.52
2022-12-01T06:23:32.839Z,64.46
2022-12-01T06:24:36.121Z,64.47
2022-12-01T06:25:39.122Z,64.46
2022-12-01T06:26:42.069Z,64.37
2022-12-01T06:27:45.137Z,64.35
2022-12-01T06:28:48.083Z,64.43
2022-12-01T06:29:51.443Z,64.50
2022-12-01T06:31:01.037Z,64.57
2022-12-01T06:32:06.097Z,64.51
2022-12-01T06:33:09.216Z,64.44
2022-12-01T06:34:12.382Z,64.35
2022-12-01T06:35:15.559Z,64.22
2022-12-01T06:36:19.207Z,64.31
2022-12-01T06:37:22.150Z,64.36
2022-12-01T06:38:25.060Z,64.39
2022-12-01T06:39:27.968Z,64.31
2022-12-01T06:40:31.515Z,64.00
2022-12-01T06:41:34.622Z,63.89
2022-12-01T06:42:37.604Z,63.97
2022-12-01T06:43:40.665Z,64.06
2022-12-01T06:44:43.582Z,63.95
2022-12-01T06:45:46.675Z,64.03
2022-12-01T06:46:52.891Z,64.11
2022-12-01T06:47:57.002Z,64.15
2022-12-01T06:49:00.087Z,64.20
2022-12-01T06:50:04.538Z,64.22
2022-12-01T06:51:07.532Z,64.34
2022-12-01T06:52:10.636Z,64.36
2022-12-01T06:53:13.689Z,64.33
2022-12-01T06:54:18.033Z,64.33
2022-12-01T06:55:21.411Z,64.35
2022-12-01T06:56:25.218Z,64.29
2022-12-01T06:57:28.501Z,64.23
2022-12-01T06:58:32.434Z,64.21
2022-12-01T06:59:35.717Z,64.24
2022-12-01T07:00:39.153Z,64.29
2022-12-01T07:01:42.242Z,64.32
2022-12-01T07:02:45.505Z,64.36
2022-12-01T07:03:51.491Z,64.37
2022-12-01T07:04:54.702Z,64.25
2022-12-01T07:05:59.218Z,64.24
2022-12-01T07:07:03.966Z,64.14
2022-12-01T07:08:07.683Z,64.16
2022-12-01T07:09:10.853Z,64.26
2022-12-01T07:10:14.233Z,64.30
2022-12-01T07:11:17.181Z,64.36
2022-12-01T07:12:20.211Z,64.41
2022-12-01T07:13:23.330Z,64.41
2022-12-01T07:14:27.260Z,64.46
2022-12-01T07:15:30.192Z,64.57
2022-12-01T07:16:33.142Z,64.44
2022-12-01T07:17:36.555Z,64.38
2022-12-01T07:18:40.515Z,64.44
2022-12-01T07:19:43.472Z,64.52
2022-12-01T07:20:46.422Z,64.52
2022-12-01T07:21:49.444Z,64.47
2022-12-01T07:22:54.423Z,64.43
2022-12-01T07:23:57.552Z,64.35
2022-12-01T07:25:00.519Z,64.38
2022-12-01T07:26:12.498Z,64.41
2022-12-01T07:27:15.428Z,64.40
2022-12-01T07:28:18.377Z,64.50
2022-12-01T07:29:21.494Z,64.59
2022-12-01T07:30:28.448Z,64.62
2022-12-01T07:31:31.731Z,64.62
2022-12-01T07:32:34.707Z,64.59
2022-12-01T07:33:38.053Z,64.37
2022-12-01T07:34:41.627Z,64.20
2022-12-01T07:35:44.543Z,64.14
2022-12-01T07:36:47.405Z,64.18
2022-12-01T07:37:56.631Z,64.20
2022-12-01T07:39:00.704Z,64.28
2022-12-01T07:40:04.596Z,64.26
2022-12-01T07:41:13.431Z,64.03
2022-12-01T07:42:16.314Z,63.90
2022-12-01T07:43:19.200Z,64.01
2022-12-01T07:44:22.350Z,64.08
2022-12-01T07:45:25.367Z,64.09
2022-12-01T07:46:28.998Z,63.96
2022-12-01T07:47:32.056Z,63.89
2022-12-01T07:48:37.164Z,63.77
2022-12-01T07:49:40.165Z,63.76
2022-12-01T07:50:43.461Z,63.58
2022-12-01T07:51:46.652Z,63.56
2022-12-01T07:52:50.843Z,63.55
2022-12-01T07:53:54.717Z,63.60
2022-12-01T07:54:57.722Z,63.69
2022-12-01T07:56:05.691Z,63.75
2022-12-01T07:57:14.344Z,63.64
2022-12-01T07:58:17.519Z,63.28
2022-12-01T07:59:20.544Z,63.33
2022-12-01T08:00:23.827Z,63.37
2022-12-01T08:01:27.196Z,63.20
2022-12-01T08:02:30.200Z,63.11
2022-12-01T08:03:33.370Z,62.69
2022-12-01T08:04:36.410Z,62.70
2022-12-01T08:05:39.514Z,62.80
2022-12-01T08:06:42.693Z,62.75
2022-12-01T08:07:45.705Z,62.87
2022-12-01T08:08:49.512Z,62.84
2022-12-01T08:09:52.395Z,62.75
2022-12-01T08:11:00.661Z,62.81
2022-12-01T08:12:03.851Z,62.78
2022-12-01T08:13:06.900Z,62.79
2022-12-01T08:14:09.810Z,62.99
2022-12-01T08:15:12.823Z,63.11
2022-12-01T08:16:18.428Z,63.09
2022-12-01T08:17:21.642Z,63.16
2022-12-01T08:18:24.855Z,62.96
2022-12-01T08:19:29.298Z,62.98
2022-12-01T08:20:32.186Z,63.02
2022-12-01T08:21:37.704Z,63.03
2022-12-01T08:22:40.928Z,62.96
2022-12-01T08:23:44.930Z,62.93
2022-12-01T08:24:47.790Z,62.75
2022-12-01T08:25:52.537Z,62.85
2022-12-01T08:26:55.762Z,63.04
2022-12-01T08:28:00.479Z,63.06
2022-12-01T08:29:03.403Z,63.14
2022-12-01T08:30:07.171Z,63.35
2022-12-01T08:31:31.829Z,63.43
2022-12-01T08:32:34.822Z,63.31
2022-12-01T08:33:38.329Z,63.30
2022-12-01T08:34:41.500Z,63.26
2022-12-01T08:35:44.702Z,63.22
2022-12-01T08:36:48.297Z,63.00
2022-12-01T08:37:54.523Z,63.01
2022-12-01T08:38:57.588Z,62.73
2022-12-01T08:40:00.783Z,62.61
2022-12-01T08:41:23.994Z,62.60
2022-12-01T08:42:36.123Z,62.59
2022-12-01T08:44:00.753Z,62.75
2022-12-01T08:45:05.234Z,62.47
2022-12-01T08:46:09.103Z,62.49
2022-12-01T08:47:15.694Z,62.27
2022-12-01T08:48:21.704Z,62.28
2022-12-01T08:49:24.865Z,62.27
2022-12-01T08:50:28.540Z,62.24
2022-12-01T08:51:32.160Z,62.15
2022-12-01T08:52:35.509Z,62.01
2022-12-01T08:53:45.527Z,61.99
2022-12-01T08:54:48.907Z,61.77
2022-12-01T08:55:52.151Z,61.61
2022-12-01T08:56:55.071Z,61.61
2022-12-01T08:57:58.107Z,62.02
2022-12-01T08:59:01.313Z,62.23
2022-12-01T09:00:05.560Z,62.49
2022-12-01T09:01:11.619Z,62.51
2022-12-01T09:02:16.069Z,62.50
2022-12-01T09:03:19.183Z,62.39
2022-12-01T09:04:25.236Z,62.46
2022-12-01T09:05:28.582Z,62.33
2022-12-01T09:06:34.300Z,62.24
2022-12-01T09:07:37.267Z,61.90
2022-12-01T09:08:41.219Z,61.46
2022-12-01T09:09:45.464Z,61.65
2022-12-01T09:10:52.504Z,61.83
2022-12-01T09:11:55.987Z,61.66
2022-12-01T09:12:59.126Z,61.75
2022-12-01T09:14:02.059Z,61.84
2022-12-01T09:15:05.509Z,62.12
2022-12-01T09:16:14.482Z,62.16
2022-12-01T09:17:17.804Z,62.06
2022-12-01T09:18:21.014Z,62.27
2022-12-01T09:19:25.322Z,62.36
2022-12-01T09:20:28.409Z,62.38
2022-12-01T09:21:33.200Z,62.45
2022-12-01T09:22:36.350Z,62.48
2022-12-01T09:23:39.676Z,62.55
2022-12-01T09:24:42.628Z,62.50
2022-12-01T09:25:45.637Z,62.56
2022-12-01T09:26:48.744Z,62.69
2022-12-01T09:27:51.883Z,62.63
2022-12-01T09:29:06.417Z,62.69
2022-12-01T09:30:10.085Z,62.72
2022-12-01T09:31:13.821Z,62.76
2022-12-01T09:32:16.888Z,62.66
2022-12-01T09:33:19.990Z,62.42
2022-12-01T09:34:23.287Z,62.40
2022-12-01T09:35:26.354Z,62.47
2022-12-01T09:36:31.448Z,62.30
2022-12-01T09:37:34.344Z,62.42
2022-12-01T09:38:38.677Z,62.55
2022-12-01T09:39:41.612Z,62.50
2022-12-01T09:40:44.683Z,62.34
2022-12-01T09:42:22.264Z,62.25
2022-12-01T09:43:29.792Z,62.21
2022-12-01T09:44:39.229Z,62.37
2022-12-01T09:45:47.505Z,62.61
2022-12-01T09:46:55.383Z,62.59
2022-12-01T09:48:03.366Z,62.59
2022-12-01T09:49:12.303Z,62.39
2022-12-01T09:50:20.275Z,62.42
2022-12-01T09:51:26.526Z,62.56
2022-12-01T09:52:34.407Z,62.47
2022-12-01T09:53:38.799Z,62.42
2022-12-01T09:54:41.874Z,62.36
2022-12-01T09:55:44.948Z,62.35
2022-12-01T09:56:50.629Z,62.26
2022-12-01T09:57:55.813Z,62.08
2022-12-01T09:59:02.380Z,62.10
2022-12-01T10:00:16.465Z,62.07
2022-12-01T10:01:31.666Z,62.13
2022-12-01T10:02:37.437Z,62.46
2022-12-01T10:03:48.391Z,62.44
2022-12-01T10:04:52.261Z,62.18
2022-12-01T10:07:52.109Z,62.11
2022-12-01T10:09:05.648Z,62.01
2022-12-01T10:10:18.034Z,61.96
2022-12-01T10:11:35.655Z,62.07
2022-12-01T10:12:44.076Z,61.13
2022-12-01T10:13:47.020Z,61.36
2022-12-01T10:14:50.762Z,61.34
2022-12-01T10:15:53.671Z,61.24
2022-12-01T10:17:15.532Z,60.72
2022-12-01T10:18:36.651Z,60.53
2022-12-01T10:19:58.837Z,60.63
2022-12-01T10:21:33.069Z,60.65
2022-12-01T10:23:09.902Z,60.72
2022-12-01T10:24:34.202Z,60.74
2022-12-01T10:25:52.098Z,60.95
2022-12-01T10:27:43.241Z,60.91
2022-12-01T10:28:58.220Z,61.30
2022-12-01T10:30:25.262Z,61.11
2022-12-01T10:31:53.173Z,60.98
2022-12-01T10:33:14.354Z,60.91
2022-12-01T10:34:34.725Z,61.00
2022-12-01T10:35:39.425Z,61.23
2022-12-01T10:36:42.579Z,61.17
2022-12-01T10:37:47.485Z,60.87
2022-12-01T10:38:50.477Z,60.83
2022-12-01T10:39:55.817Z,60.65
2022-12-01T10:41:01.307Z,60.86
2022-12-01T10:42:10.531Z,61.06
2022-12-01T10:43:14.138Z,61.20
2022-12-01T10:44:18.776Z,60.90
2022-12-01T10:45:24.737Z,60.83
2022-12-01T10:46:39.681Z,60.83
2022-12-01T10:48:09.335Z,60.66
2022-12-01T10:49:14.952Z,60.25
2022-12-01T10:50:28.094Z,60.17
2022-12-01T10:51:31.276Z,60.09
2022-12-01T10:52:40.322Z,60.26
2022-12-01T10:53:43.424Z,59.61
2022-12-01T10:54:46.429Z,58.97
2022-12-01T10:55:58.927Z,58.50
2022-12-01T10:57:03.122Z,58.55
2022-12-01T10:58:14.649Z,59.31
2022-12-01T10:59:26.003Z,60.81
2022-12-01T11:01:59.549Z,60.25
2022-12-01T11:03:04.335Z,61.07
2022-12-01T11:04:24.821Z,61.52
2022-12-01T11:05:32.953Z,61.72
2022-12-01T11:06:37.455Z,63.12
2022-12-01T11:07:47.085Z,63.28
2022-12-01T11:08:57.722Z,63.19
2022-12-01T11:10:39.338Z,62.85
2022-12-01T11:11:42.711Z,62.03
2022-12-01T11:12:55.407Z,62.22
2022-12-01T11:14:02.509Z,61.85
2022-12-01T11:15:06.546Z,61.47
2022-12-01T11:16:37.492Z,61.45
2022-12-01T11:17:44.876Z,61.33
2022-12-01T11:18:47.945Z,61.39
2022-12-01T11:19:51.302Z,61.19
2022-12-01T11:21:12.318Z,61.15
2022-12-01T11:22:33.475Z,60.52
2022-12-01T11:23:39.054Z,60.61
2022-12-01T11:24:57.048Z,60.35
2022-12-01T11:26:05.465Z,60.03
2022-12-01T11:27:16.888Z,60.07
2022-12-01T11:28:20.955Z,59.78
2022-12-01T11:29:36.393Z,59.86
2022-12-01T11:30:39.347Z,59.86
2022-12-01T11:31:46.915Z,59.80
2022-12-01T11:33:00.001Z,59.80
2022-12-01T11:34:03.216Z,59.62
2022-12-01T11:35:21.974Z,59.67
2022-12-01T11:36:37.699Z,59.83
2022-12-01T11:38:13.292Z,60.01
2022-12-01T11:39:24.678Z,59.78
2022-12-01T11:40:33.544Z,59.52
2022-12-01T11:41:40.327Z,59.32
2022-12-01T11:42:52.139Z,58.50
2022-12-01T11:44:01.452Z,58.50
2022-12-01T11:45:23.727Z,58.52
2022-12-01T11:46:34.174Z,60.22
2022-12-01T11:48:01.511Z,60.38
2022-12-01T11:49:04.773Z,60.37
2022-12-01T11:50:25.098Z,61.52
2022-12-01T11:51:38.240Z,61.43
2022-12-01T11:52:47.455Z,62.28
2022-12-01T11:54:06.489Z,62.34
2022-12-01T11:55:12.591Z,62.16
2022-12-01T11:56:20.764Z,61.94
2022-12-01T11:57:39.466Z,61.62
2022-12-01T11:58:43.419Z,61.51
2022-12-01T11:59:47.265Z,61.47
2022-12-01T12:00:56.143Z,61.38
2022-12-01T12:02:18.056Z,61.22
2022-12-01T12:03:29.441Z,60.91
2022-12-01T12:04:57.207Z,60.92
2022-12-01T12:06:38.365Z,61.04
2022-12-01T12:07:52.532Z,61.02
2022-12-01T12:09:10.784Z,61.19
2022-12-01T12:10:36.267Z,60.69
2022-12-01T12:11:49.962Z,60.63
2022-12-01T12:13:20.357Z,60.30
2022-12-01T12:14:32.209Z,59.54
2022-12-01T12:15:50.333Z,59.12
2022-12-01T12:17:07.016Z,58.07
2022-12-01T12:18:38.068Z,58.33
2022-12-01T12:20:12.203Z,58.56
2022-12-01T12:21:30.354Z,59.18
2022-12-01T12:22:55.397Z,61.05
2022-12-01T12:24:25.544Z,60.90
2022-12-01T12:25:34.655Z,60.78
2022-12-01T12:27:16.012Z,61.51
2022-12-01T12:28:57.595Z,62.03
2022-12-01T12:30:24.316Z,62.93
2022-12-01T12:32:02.994Z,63.15
2022-12-01T12:33:18.997Z,63.18
2022-12-01T12:34:30.091Z,63.04
2022-12-01T12:35:33.118Z,62.82
2022-12-01T12:37:14.527Z,62.63
2022-12-01T12:38:29.536Z,62.70
2022-12-01T12:39:57.516Z,62.09
2022-12-01T12:41:29.725Z,61.34
2022-12-01T12:42:50.961Z,60.50
2022-12-01T12:44:18.531Z,60.34
2022-12-01T12:45:47.531Z,60.34
2022-12-01T12:47:29.379Z,60.22
2022-12-01T12:49:25.538Z,60.59
2022-12-01T12:50:36.819Z,60.49
2022-12-01T12:52:08.140Z,60.11
2022-12-01T12:53:20.141Z,60.07
2022-12-01T12:54:49.420Z,60.22
2022-12-01T12:55:58.106Z,60.13
2022-12-01T12:57:05.935Z,60.06
2022-12-01T12:58:21.747Z,59.72
2022-12-01T12:59:30.044Z,59.22
2022-12-01T13:00:35.277Z,58.52
2022-12-01T13:01:43.270Z,58.51
2022-12-01T13:02:55.329Z,59.03
2022-12-01T13:04:09.467Z,59.44
2022-12-01T13:05:36.220Z,60.27
2022-12-01T13:06:45.740Z,59.68
2022-12-01T13:08:04.589Z,60.91
2022-12-01T13:09:16.622Z,61.56
2022-12-01T13:10:23.283Z,61.67
2022-12-01T13:11:48.549Z,62.69
2022-12-01T13:12:57.960Z,62.80
2022-12-01T13:14:10.826Z,62.99
2022-12-01T13:15:17.672Z,62.95
2022-12-01T13:16:41.343Z,62.74
2022-12-01T13:17:51.420Z,62.46
2022-12-01T13:19:07.931Z,62.15
2022-12-01T13:20:16.042Z,61.98
2022-12-01T13:21:21.137Z,61.74
2022-12-01T13:22:31.225Z,61.26
2022-12-01T13:23:37.659Z,61.03
2022-12-01T13:24:41.005Z,60.95
2022-12-01T13:25:50.351Z,60.97
2022-12-01T13:27:06.787Z,61.01
2022-12-01T13:28:22.102Z,60.84
2022-12-01T13:29:27.071Z,60.48
2022-12-01T13:30:31.044Z,60.64
2022-12-01T13:31:46.590Z,60.58
2022-12-01T13:32:57.454Z,60.49
2022-12-01T13:34:03.128Z,60.10
2022-12-01T13:35:27.653Z,60.00
2022-12-01T13:36:48.160Z,59.75
2022-12-01T13:37:51.426Z,59.76
2022-12-01T13:39:02.648Z,59.61
2022-12-01T13:40:25.425Z,59.63
2022-12-01T13:41:39.785Z,59.92
2022-12-01T13:42:44.374Z,59.90
2022-12-01T13:43:59.185Z,59.82
2022-12-01T13:45:10.294Z,59.65
2022-12-01T13:46:44.408Z,59.39
2022-12-01T13:47:52.305Z,58.31
2022-12-01T13:48:57.716Z,58.58
2022-12-01T13:50:39.499Z,58.64
2022-12-01T13:52:20.070Z,57.88
2022-12-01T13:53:23.210Z,58.21
2022-12-01T13:54:30.295Z,59.50
2022-12-01T13:55:33.465Z,59.58
2022-12-01T13:56:45.733Z,60.71
2022-12-01T13:57:59.508Z,60.66
2022-12-01T13:59:03.674Z,60.89
2022-12-01T14:00:29.964Z,61.20
2022-12-01T14:01:35.322Z,60.86
2022-12-01T14:02:38.548Z,61.62
2022-12-01T14:03:51.689Z,62.09
2022-12-01T14:04:54.911Z,62.50
2022-12-01T14:06:10.283Z,63.20
2022-12-01T14:07:50.310Z,63.34
2022-12-01T14:09:02.937Z,63.52
2022-12-01T14:10:17.276Z,63.28
2022-12-01T14:11:25.989Z,62.96
2022-12-01T14:12:34.418Z,62.67
2022-12-01T14:13:58.813Z,62.39
2022-12-01T14:15:20.742Z,62.24
2022-12-01T14:16:24.663Z,62.09
2022-12-01T14:17:33.758Z,61.86
2022-12-01T14:18:41.758Z,61.54
2022-12-01T14:19:52.538Z,61.37
2022-12-01T14:20:56.062Z,60.78
2022-12-01T14:22:00.472Z,60.57
2022-12-01T14:23:15.055Z,60.38
2022-12-01T14:24:34.359Z,60.36
2022-12-01T14:25:38.792Z,60.30
2022-12-01T14:26:45.302Z,60.19
2022-12-01T14:27:51.566Z,60.20
2022-12-01T14:29:00.543Z,59.96
2022-12-01T14:30:40.966Z,59.78
2022-12-01T14:31:44.949Z,59.92
2022-12-01T14:32:48.907Z,59.94
2022-12-01T14:33:53.594Z,59.73
2022-12-01T14:35:01.491Z,59.68
2022-12-01T14:36:22.844Z,59.69
2022-12-01T14:37:33.307Z,59.62
2022-12-01T14:38:36.885Z,59.60
2022-12-01T14:39:51.999Z,59.60
2022-12-01T14:40:55.318Z,59.62
2022-12-01T14:42:36.352Z,59.64
2022-12-01T14:44:01.527Z,59.81
2022-12-01T14:45:08.230Z,59.77
2022-12-01T14:46:23.028Z,59.72
2022-12-01T14:47:33.727Z,59.82
2022-12-01T14:48:43.280Z,59.67
2022-12-01T14:50:11.802Z,59.68
2022-12-01T14:51:29.987Z,59.67